Time;durP1;ratioP1;P1;durP2;ratioP2;P2;SDS_P1;SDS_P2;PMS_P1;PMS_P2;Temp;Humidity;BMP_temperature;BMP_pressure;BME280_temperature;BME280_humidity;BME280_pressure;Samples;Min_cycle;Max_cycle;Signal;HPM_P1;HPM_P2
2021/04/22 00:01:27;;;;;;;23.38;14.65;;;;;;;11.12;53.22;99834.45;1685384;82;25365;-75
2021/04/22 00:03:53;;;;;;;23.07;15.23;;;;;;;11.09;53.38;99832.20;1702070;82;25803;-75
2021/04/22 00:06:19;;;;;;;20.85;14.10;;;;;;;11.06;53.49;99827.34;1701723;82;25750;-72
2021/04/22 00:08:45;;;;;;;19.85;14.10;;;;;;;11.05;53.79;99835.69;1707082;82;32562;-75
2021/04/22 00:11:11;;;;;;;24.40;15.37;;;;;;;11.02;53.96;99838.67;1699499;82;25650;-72
2021/04/22 00:13:37;;;;;;;24.03;15.10;;;;;;;10.99;54.18;99836.39;1702304;82;30165;-72
2021/04/22 00:16:03;;;;;;;24.47;14.97;;;;;;;10.98;54.42;99841.31;1687035;82;26537;-72
2021/04/22 00:18:30;;;;;;;23.30;14.85;;;;;;;10.95;54.60;99838.26;1699568;82;25760;-72
2021/04/22 00:20:56;;;;;;;23.87;15.60;;;;;;;10.92;54.87;99839.93;1694755;82;26026;-72
2021/04/22 00:23:22;;;;;;;24.85;16.05;;;;;;;10.90;55.06;99840.09;1697967;82;25869;-72
2021/04/22 00:25:48;;;;;;;26.10;16.63;;;;;;;10.89;55.30;99843.21;1701974;82;30613;-72
2021/04/22 00:28:15;;;;;;;26.03;16.50;;;;;;;10.85;55.41;99838.52;1696938;82;29138;-72
2021/04/22 00:30:44;;;;;;;27.30;15.90;;;;;;;10.81;55.81;99835.95;1696487;82;25655;-72
2021/04/22 00:33:17;;;;;;;26.42;16.65;;;;;;;10.75;55.85;99837.95;1703611;82;26497;-72
2021/04/22 00:35:43;;;;;;;26.57;16.37;;;;;;;10.72;56.07;99843.08;1696197;82;26424;-72
2021/04/22 00:38:10;;;;;;;26.57;17.48;;;;;;;10.68;56.47;99850.94;1700190;82;25296;-71
2021/04/22 00:40:38;;;;;;;27.58;16.87;;;;;;;10.62;56.61;99862.11;1698247;82;25791;-71
2021/04/22 00:43:09;;;;;;;29.15;17.82;;;;;;;10.56;57.44;99868.05;1702874;82;25651;-72
2021/04/22 00:45:42;;;;;;;27.75;17.52;;;;;;;10.50;57.35;99866.94;1697907;82;25800;-73
2021/04/22 00:48:07;;;;;;;26.17;17.10;;;;;;;10.46;57.93;99860.45;1685769;83;25942;-73
2021/04/22 00:50:37;;;;;;;25.77;17.07;;;;;;;10.41;58.32;99864.08;1700156;82;25783;-72
2021/04/22 00:53:04;;;;;;;21.45;15.20;;;;;;;10.41;58.48;99871.92;1705779;82;25744;-73
2021/04/22 00:55:31;;;;;;;23.92;15.28;;;;;;;10.41;59.20;99870.11;1706722;81;25279;-73
2021/04/22 00:57:57;;;;;;;22.75;15.10;;;;;;;10.38;59.71;99870.47;1679289;83;25831;-75
2021/04/22 01:00:28;;;;;;;18.73;13.28;;;;;;;10.33;59.57;99868.06;1681442;83;25834;-75
2021/04/22 01:02:55;;;;;;;17.73;12.15;;;;;;;10.28;60.61;99864.66;1696381;82;26276;-75
2021/04/22 01:05:28;;;;;;;16.57;11.88;;;;;;;10.22;60.07;99854.89;1705002;82;25736;-75
2021/04/22 01:07:54;;;;;;;16.75;12.05;;;;;;;10.20;60.43;99853.78;1673739;83;25291;-75
2021/04/22 01:10:21;;;;;;;14.38;11.50;;;;;;;10.20;59.96;99864.70;1674597;83;32172;-73
2021/04/22 01:12:48;;;;;;;15.98;10.78;;;;;;;10.18;60.18;99880.55;1675834;83;25811;-73
2021/04/22 01:15:19;;;;;;;15.50;10.30;;;;;;;10.18;59.77;99892.31;1677834;83;25828;-73
2021/04/22 01:17:45;;;;;;;17.40;10.25;;;;;;;10.19;60.03;99887.89;1675741;83;26447;-73
2021/04/22 01:20:19;;;;;;;17.48;11.43;;;;;;;10.14;59.80;99888.41;1674454;83;34915;-72
2021/04/22 01:22:47;;;;;;;15.23;9.83;;;;;;;10.15;59.85;99888.74;1672877;83;25776;-73
2021/04/22 01:25:18;;;;;;;15.78;9.85;;;;;;;10.16;60.02;99882.52;1675979;82;26071;-75
2021/04/22 01:27:44;;;;;;;18.17;11.30;;;;;;;10.13;59.95;99878.15;1676632;83;25676;-75
2021/04/22 01:30:19;;;;;;;18.65;10.50;;;;;;;10.09;59.95;99880.27;1675669;83;26678;-73
2021/04/22 01:32:45;;;;;;;15.28;10.88;;;;;;;10.04;60.03;99881.78;1678680;83;26103;-73
2021/04/22 01:35:18;;;;;;;15.55;10.32;;;;;;;9.97;60.43;99877.76;1675212;83;25759;-73
2021/04/22 01:37:44;;;;;;;15.78;10.08;;;;;;;9.90;60.64;99882.03;1675519;83;25940;-73
2021/04/22 01:40:12;;;;;;;18.80;10.90;;;;;;;9.82;60.80;99879.00;1675625;83;26099;-73
2021/04/22 01:42:39;;;;;;;14.55;9.75;;;;;;;9.77;61.21;99878.70;1680374;83;25758;-73
2021/04/22 01:45:08;;;;;;;16.67;11.50;;;;;;;9.72;61.34;99873.98;1676720;83;25824;-73
2021/04/22 01:47:35;;;;;;;15.32;10.80;;;;;;;9.68;61.31;99873.19;1674974;83;25746;-73
2021/04/22 01:50:01;;;;;;;15.20;10.82;;;;;;;9.67;61.26;99885.42;1677371;83;25843;-72
2021/04/22 01:52:27;;;;;;;17.42;11.50;;;;;;;9.67;61.55;99898.97;1676749;83;25875;-75
2021/04/22 01:54:53;;;;;;;17.30;12.70;;;;;;;9.64;61.61;99909.25;1675429;83;25904;-75
2021/04/22 01:57:19;;;;;;;14.87;10.63;;;;;;;9.59;61.97;99901.61;1674519;83;25753;-75
2021/04/22 01:59:45;;;;;;;17.07;10.88;;;;;;;9.52;62.03;99903.61;1676964;83;31495;-75
2021/04/22 02:02:12;;;;;;;15.25;11.30;;;;;;;9.51;62.47;99910.28;1674097;83;25845;-75
2021/04/22 02:04:38;;;;;;;20.23;11.73;;;;;;;9.44;62.35;99911.46;1673929;83;25838;-75
2021/04/22 02:07:07;;;;;;;14.73;11.57;;;;;;;9.42;62.53;99911.30;1678211;83;25711;-75
2021/04/22 02:09:33;;;;;;;15.38;11.28;;;;;;;9.40;63.36;99911.95;1679499;83;25759;-73
2021/04/22 02:12:00;;;;;;;16.10;12.30;;;;;;;9.34;63.37;99912.95;1673414;83;30282;-75
2021/04/22 02:14:26;;;;;;;21.75;13.18;;;;;;;9.29;63.32;99907.42;1681838;83;25723;-75
2021/04/22 02:16:52;;;;;;;16.85;13.30;;;;;;;9.27;63.47;99916.39;1675976;83;25777;-75
2021/04/22 02:19:18;;;;;;;18.33;13.33;;;;;;;9.25;63.60;99923.59;1679975;83;26611;-75
2021/04/22 02:21:44;;;;;;;21.27;14.28;;;;;;;9.20;63.86;99922.77;1679673;83;34842;-75
2021/04/22 02:24:11;;;;;;;20.17;13.47;;;;;;;9.13;64.08;99935.33;1681505;83;31358;-75
2021/04/22 02:26:37;;;;;;;19.23;11.95;;;;;;;9.11;64.16;99934.19;1678164;83;25797;-73
2021/04/22 02:29:03;;;;;;;16.73;11.67;;;;;;;9.05;64.45;99935.66;1677695;83;27186;-73
2021/04/22 02:31:29;;;;;;;15.88;10.93;;;;;;;8.99;64.41;99941.55;1676519;83;25347;-73
2021/04/22 02:33:55;;;;;;;15.75;11.28;;;;;;;8.94;64.46;99936.50;1675693;83;25756;-73
2021/04/22 02:36:21;;;;;;;16.67;11.55;;;;;;;8.90;64.63;99936.03;1674498;83;30725;-73
2021/04/22 02:38:48;;;;;;;17.80;10.50;;;;;;;8.86;64.52;99948.55;1676267;83;25925;-73
2021/04/22 02:41:14;;;;;;;15.32;10.38;;;;;;;8.81;64.52;99950.02;1678645;83;25279;-75
2021/04/22 02:43:40;;;;;;;12.78;9.20;;;;;;;8.71;64.51;99951.51;1677601;83;25751;-74
2021/04/22 02:46:06;;;;;;;10.93;8.55;;;;;;;8.67;65.05;99952.80;1680180;83;34655;-75
2021/04/22 02:48:32;;;;;;;14.53;10.00;;;;;;;8.62;64.97;99966.79;1678297;83;31334;-75
2021/04/22 02:50:58;;;;;;;12.37;8.40;;;;;;;8.57;65.11;99971.20;1674488;83;25720;-75
2021/04/22 02:53:25;;;;;;;12.55;8.40;;;;;;;8.51;65.27;99964.05;1674389;83;25526;-73
2021/04/22 02:55:51;;;;;;;12.88;8.93;;;;;;;8.49;65.12;99955.56;1675730;83;25900;-73
2021/04/22 02:58:19;;;;;;;13.43;8.38;;;;;;;8.51;65.10;99951.02;1675698;83;25795;-75
2021/04/22 03:00:47;;;;;;;15.05;8.30;;;;;;;8.57;65.08;99937.83;1675983;83;25750;-75
2021/04/22 03:03:13;;;;;;;11.35;7.03;;;;;;;8.60;64.91;99946.63;1674152;83;25723;-76
2021/04/22 03:05:39;;;;;;;9.70;6.92;;;;;;;8.59;65.18;99930.65;1674304;83;25734;-75
2021/04/22 03:08:06;;;;;;;14.20;8.28;;;;;;;8.58;65.28;99915.52;1673299;83;25717;-75
2021/04/22 03:10:34;;;;;;;12.70;8.18;;;;;;;8.54;65.13;99914.22;1673564;83;25803;-75
2021/04/22 03:13:00;;;;;;;12.47;7.53;;;;;;;8.54;64.94;99916.83;1678167;83;25749;-75
2021/04/22 03:15:27;;;;;;;14.23;9.08;;;;;;;8.56;65.00;99940.91;1678212;83;25957;-75
2021/04/22 03:17:53;;;;;;;17.52;9.60;;;;;;;8.56;64.96;99944.00;1674198;83;26536;-75
2021/04/22 03:20:21;;;;;;;12.55;8.63;;;;;;;8.57;65.00;99966.48;1676029;83;25796;-75
2021/04/22 03:22:48;;;;;;;16.40;10.53;;;;;;;8.57;65.07;99978.20;1675975;83;25691;-75
2021/04/22 03:25:16;;;;;;;12.23;8.15;;;;;;;8.55;65.43;99972.34;1679367;83;25734;-75
2021/04/22 03:27:42;;;;;;;11.20;7.83;;;;;;;8.53;65.18;99970.37;1677749;83;25851;-73
2021/04/22 03:30:12;;;;;;;14.00;7.92;;;;;;;8.52;65.40;99963.55;1677352;83;25818;-73
2021/04/22 03:32:39;;;;;;;12.88;7.58;;;;;;;8.49;65.32;99975.10;1677226;83;25683;-73
2021/04/22 03:35:06;;;;;;;12.23;7.85;;;;;;;8.44;65.60;99983.39;1680343;83;25670;-73
2021/04/22 03:37:32;;;;;;;11.50;7.87;;;;;;;8.40;65.58;99988.60;1677812;83;25778;-73
2021/04/22 03:40:00;;;;;;;13.70;7.00;;;;;;;8.38;65.43;99999.63;1678970;83;25969;-73
2021/04/22 03:42:26;;;;;;;12.80;6.55;;;;;;;8.39;65.49;99997.38;1681611;83;26043;-72
2021/04/22 03:44:52;;;;;;;12.73;6.22;;;;;;;8.35;65.07;99996.53;1675773;83;25949;-73
2021/04/22 03:47:18;;;;;;;15.10;6.37;;;;;;;8.31;64.69;100004.33;1678437;83;35200;-73
2021/04/22 03:49:44;;;;;;;10.50;5.47;;;;;;;8.27;64.45;100005.14;1678027;83;30855;-73
2021/04/22 03:52:10;;;;;;;11.88;5.78;;;;;;;8.19;64.04;99985.59;1675874;83;26592;-73
2021/04/22 03:54:37;;;;;;;12.18;5.80;;;;;;;8.10;64.14;99980.02;1678630;83;25754;-73
2021/04/22 03:57:06;;;;;;;12.58;5.85;;;;;;;8.04;64.42;99981.46;1675445;83;26454;-73
2021/04/22 03:59:32;;;;;;;12.93;6.10;;;;;;;8.03;64.80;99995.95;1675278;83;25749;-73
2021/04/22 04:01:59;;;;;;;9.47;6.03;;;;;;;7.99;65.09;99999.33;1678548;83;31696;-73
2021/04/22 04:04:25;;;;;;;11.83;6.00;;;;;;;7.91;65.42;99999.30;1681441;83;25706;-73
2021/04/22 04:06:51;;;;;;;11.33;5.80;;;;;;;7.80;65.71;100004.30;1679255;83;25784;-72
2021/04/22 04:09:16;;;;;;;10.90;6.07;;;;;;;7.76;66.02;100003.80;1675654;83;26599;-73
2021/04/22 04:11:42;;;;;;;12.83;5.77;;;;;;;7.68;66.07;100008.96;1676338;83;33572;-73
2021/04/22 04:14:08;;;;;;;11.67;5.70;;;;;;;7.61;66.08;100004.06;1677161;83;30726;-73
2021/04/22 04:16:34;;;;;;;10.70;5.43;;;;;;;7.55;66.26;100022.87;1682569;83;25932;-72
2021/04/22 04:19:00;;;;;;;14.57;6.57;;;;;;;7.53;66.53;100033.93;1649720;83;25828;-73
2021/04/22 04:21:26;;;;;;;8.90;5.87;;;;;;;7.43;66.96;100043.12;1680042;83;25372;-72
2021/04/22 04:23:52;;;;;;;10.93;6.70;;;;;;;7.37;66.94;100054.63;1652464;83;44568;-73
2021/04/22 04:26:18;;;;;;;12.60;5.90;;;;;;;7.29;67.07;100037.98;1676513;83;32612;-73
2021/04/22 04:28:45;;;;;;;10.43;5.17;;;;;;;7.26;68.04;100053.89;1653325;83;25790;-73
2021/04/22 04:31:11;;;;;;;11.68;5.67;;;;;;;7.15;67.97;100060.63;1677197;83;25739;-73
2021/04/22 04:33:37;;;;;;;12.47;5.40;;;;;;;7.02;68.57;100058.41;1679557;83;25952;-73
2021/04/22 04:36:04;;;;;;;10.80;5.25;;;;;;;6.99;69.07;100066.50;1678193;83;25685;-73
2021/04/22 04:38:30;;;;;;;9.50;5.15;;;;;;;6.94;69.05;100070.52;1681542;83;25838;-73
2021/04/22 04:40:56;;;;;;;11.73;5.63;;;;;;;6.81;71.20;100070.87;1681124;83;25765;-73
2021/04/22 04:43:22;;;;;;;10.57;5.13;;;;;;;6.70;70.72;100070.60;1677122;83;25867;-73
2021/04/22 04:45:47;;;;;;;8.87;5.33;;;;;;;6.63;70.67;100083.86;1675592;83;25874;-74
2021/04/22 04:48:13;;;;;;;9.70;5.87;;;;;;;6.55;71.31;100097.56;1676073;83;31063;-72
2021/04/22 04:50:39;;;;;;;11.93;5.30;;;;;;;6.49;71.42;100090.81;1674303;83;29395;-73
2021/04/22 04:53:06;;;;;;;13.00;4.83;;;;;;;6.45;71.99;100082.51;1678102;83;25893;-73
2021/04/22 04:55:32;;;;;;;12.25;5.22;;;;;;;6.31;71.23;100094.20;1675406;83;25817;-72
2021/04/22 04:57:58;;;;;;;10.23;6.45;;;;;;;6.26;71.35;100100.30;1675483;83;25806;-73
2021/04/22 05:00:25;;;;;;;10.50;3.77;;;;;;;6.19;71.53;100110.89;1677316;83;31147;-73
2021/04/22 05:02:52;;;;;;;9.73;3.90;;;;;;;6.05;71.37;100122.55;1673567;83;25732;-73
2021/04/22 05:05:18;;;;;;;10.70;4.30;;;;;;;5.88;70.55;100105.92;1675698;83;25818;-73
2021/04/22 05:07:44;;;;;;;7.80;4.15;;;;;;;5.88;70.89;100098.14;1674770;83;26364;-73
2021/04/22 05:10:11;;;;;;;7.53;3.80;;;;;;;5.85;70.98;100091.13;1674836;83;26482;-73
2021/04/22 05:12:37;;;;;;;10.08;4.53;;;;;;;5.89;71.61;100088.13;1674163;83;25798;-73
2021/04/22 05:15:05;;;;;;;8.37;4.07;;;;;;;5.96;71.36;100081.91;1674325;83;30493;-73
2021/04/22 05:17:32;;;;;;;8.23;3.72;;;;;;;6.07;71.28;100086.91;1680660;83;25757;-73
2021/04/22 05:19:58;;;;;;;11.68;4.50;;;;;;;6.08;71.14;100083.84;1679466;82;26781;-73
2021/04/22 05:22:23;;;;;;;12.13;4.43;;;;;;;6.08;71.07;100091.63;1683397;83;25960;-73
2021/04/22 05:24:50;;;;;;;14.10;4.53;;;;;;;6.04;71.12;100091.09;1679423;83;30184;-73
2021/04/22 05:27:16;;;;;;;16.32;3.98;;;;;;;6.06;71.70;100093.56;1674332;83;25414;-73
2021/04/22 05:29:42;;;;;;;14.18;5.12;;;;;;;6.14;72.02;100102.27;1679298;83;25739;-73
2021/04/22 05:32:09;;;;;;;15.80;5.37;;;;;;;6.15;71.92;100105.67;1674622;83;25364;-73
2021/04/22 05:34:35;;;;;;;12.28;6.62;;;;;;;6.12;72.20;100106.77;1674436;83;25774;-73
2021/04/22 05:37:00;;;;;;;17.13;6.90;;;;;;;6.15;72.33;100109.08;1652776;83;31139;-73
2021/04/22 05:39:26;;;;;;;15.40;6.90;;;;;;;6.08;72.70;100115.78;1682129;83;27852;-73
2021/04/22 05:41:55;;;;;;;16.63;5.60;;;;;;;6.04;72.92;100112.34;1677832;83;25904;-76
2021/04/22 05:44:20;;;;;;;19.37;7.47;;;;;;;6.07;72.92;100110.75;1673762;83;25747;-76
2021/04/22 05:46:46;;;;;;;14.60;6.90;;;;;;;6.12;73.25;100121.53;1672484;83;26278;-73
2021/04/22 05:49:12;;;;;;;11.40;5.03;;;;;;;6.18;73.39;100120.95;1676289;83;28307;-74
2021/04/22 05:51:39;;;;;;;10.90;4.67;;;;;;;6.18;73.37;100121.77;1677043;83;27859;-73
2021/04/22 05:54:07;;;;;;;13.05;4.62;;;;;;;6.20;73.38;100113.84;1676514;83;25722;-73
2021/04/22 05:56:33;;;;;;;11.80;5.42;;;;;;;6.19;73.75;100111.73;1679035;83;26746;-73
2021/04/22 05:58:59;;;;;;;11.57;4.87;;;;;;;6.17;73.40;100110.25;1676770;83;25578;-73
2021/04/22 06:01:25;;;;;;;11.73;4.67;;;;;;;6.21;73.80;100115.47;1675276;83;25485;-73
2021/04/22 06:03:51;;;;;;;14.75;6.08;;;;;;;6.15;74.27;100119.94;1673424;83;26412;-73
2021/04/22 06:06:17;;;;;;;11.23;5.87;;;;;;;6.14;73.91;100120.91;1678506;83;25423;-75
2021/04/22 06:08:43;;;;;;;15.87;5.97;;;;;;;6.18;74.60;100128.73;1675834;83;25834;-76
2021/04/22 06:11:08;;;;;;;16.03;6.10;;;;;;;6.20;74.09;100126.34;1678705;83;25885;-76
2021/04/22 06:13:34;;;;;;;10.73;5.40;;;;;;;6.22;74.36;100135.29;1652718;83;32148;-76
2021/04/22 06:16:00;;;;;;;14.70;5.90;;;;;;;6.22;74.68;100140.48;1677712;83;28271;-76
2021/04/22 06:18:26;;;;;;;17.33;5.17;;;;;;;6.23;74.39;100131.73;1675368;83;25422;-76
2021/04/22 06:20:52;;;;;;;11.77;5.97;;;;;;;6.26;74.38;100126.73;1674988;83;26593;-76
2021/04/22 06:23:18;;;;;;;11.57;5.20;;;;;;;6.31;74.21;100132.31;1674123;83;26472;-76
2021/04/22 06:25:44;;;;;;;13.30;7.17;;;;;;;6.40;74.68;100140.05;1679874;83;31197;-76
2021/04/22 06:28:10;;;;;;;10.17;5.17;;;;;;;6.48;74.59;100138.03;1678355;83;28403;-76
2021/04/22 06:30:35;;;;;;;10.07;4.83;;;;;;;6.53;74.11;100142.80;1653436;83;25787;-76
2021/04/22 06:33:03;;;;;;;7.73;4.27;;;;;;;6.59;73.91;100148.71;1673010;83;25780;-75
2021/04/22 06:35:29;;;;;;;12.18;4.80;;;;;;;6.62;73.29;100146.63;1678325;83;26597;-72
2021/04/22 06:37:55;;;;;;;11.33;5.08;;;;;;;6.65;73.15;100148.13;1679164;83;25829;-72
2021/04/22 06:40:24;;;;;;;8.77;3.90;;;;;;;6.72;73.35;100144.48;1680905;83;30216;-72
2021/04/22 06:42:52;;;;;;;9.05;4.08;;;;;;;6.83;72.27;100149.47;1675086;83;26467;-72
2021/04/22 06:45:19;;;;;;;7.12;3.47;;;;;;;6.87;72.00;100146.91;1674695;83;25634;-71
2021/04/22 06:47:47;;;;;;;14.45;5.22;;;;;;;6.92;70.39;100151.67;1677290;83;25770;-72
2021/04/22 06:50:18;;;;;;;13.53;4.15;;;;;;;6.94;70.77;100145.86;1676962;83;25729;-71
2021/04/22 06:52:43;;;;;;;8.55;3.37;;;;;;;6.98;70.17;100146.69;1680460;83;25749;-73
2021/04/22 06:55:18;;;;;;;11.20;4.30;;;;;;;7.00;68.91;100148.67;1674088;83;25967;-73
2021/04/22 06:57:44;;;;;;;14.10;3.90;;;;;;;7.01;68.81;100146.42;1678361;83;25905;-72
2021/04/22 07:00:15;;;;;;;15.93;4.60;;;;;;;7.02;67.68;100154.55;1675521;83;25904;-73
2021/04/22 07:02:41;;;;;;;15.63;4.22;;;;;;;6.99;67.86;100155.33;1675978;83;25755;-72
2021/04/22 07:05:09;;;;;;;11.57;4.40;;;;;;;6.95;66.77;100156.58;1676663;83;25528;-73
2021/04/22 07:07:36;;;;;;;11.65;3.90;;;;;;;6.93;67.86;100164.98;1676311;83;25709;-74
2021/04/22 07:10:03;;;;;;;12.60;4.55;;;;;;;6.97;68.06;100168.94;1651377;83;25737;-71
2021/04/22 07:12:29;;;;;;;17.52;4.65;;;;;;;7.06;67.85;100177.14;1674131;83;26142;-71
2021/04/22 07:14:55;;;;;;;15.83;4.23;;;;;;;7.07;65.48;100186.59;1676360;83;31754;-70
2021/04/22 07:17:21;;;;;;;10.40;3.93;;;;;;;7.00;63.55;100176.44;1676149;83;28378;-70
2021/04/22 07:19:47;;;;;;;11.43;3.73;;;;;;;6.99;61.86;100170.92;1675040;83;26794;-70
2021/04/22 07:22:13;;;;;;;14.57;4.30;;;;;;;6.98;62.29;100175.27;1674005;84;26432;-74
2021/04/22 07:24:39;;;;;;;13.80;4.10;;;;;;;6.98;61.85;100176.58;1675189;83;25825;-72
2021/04/22 07:27:06;;;;;;;13.90;4.55;;;;;;;7.03;61.95;100182.16;1675292;83;25703;-71
2021/04/22 07:29:32;;;;;;;11.53;3.42;;;;;;;7.08;60.59;100196.83;1675559;83;25832;-73
2021/04/22 07:31:58;;;;;;;14.80;3.47;;;;;;;7.06;57.12;100201.84;1677380;83;25879;-71
2021/04/22 07:34:24;;;;;;;13.98;3.80;;;;;;;6.98;57.93;100193.46;1674908;83;25841;-71
2021/04/22 07:36:50;;;;;;;10.63;3.30;;;;;;;6.94;56.80;100199.12;1676260;83;25841;-71
2021/04/22 07:39:16;;;;;;;9.98;3.35;;;;;;;6.85;55.49;100196.42;1678270;83;25823;-71
2021/04/22 07:41:42;;;;;;;15.60;3.83;;;;;;;6.78;55.47;100188.86;1679573;83;27885;-71
2021/04/22 07:44:08;;;;;;;9.83;3.20;;;;;;;6.73;55.43;100203.25;1676014;83;25890;-71
2021/04/22 07:46:33;;;;;;;13.07;3.80;;;;;;;6.74;56.33;100203.12;1678091;83;25785;-73
2021/04/22 07:48:59;;;;;;;10.30;3.60;;;;;;;6.78;55.91;100204.45;1678656;83;25908;-72
2021/04/22 07:51:25;;;;;;;7.50;3.33;;;;;;;6.88;57.19;100200.52;1677808;83;33307;-72
2021/04/22 07:53:52;;;;;;;8.90;3.58;;;;;;;6.93;55.65;100206.10;1679398;83;25805;-71
2021/04/22 07:56:18;;;;;;;14.10;3.80;;;;;;;6.94;56.82;100202.53;1676846;83;26972;-72
2021/04/22 07:58:44;;;;;;;15.90;4.30;;;;;;;7.04;56.96;100209.80;1674538;83;25917;-70
2021/04/22 08:01:09;;;;;;;14.83;4.30;;;;;;;7.08;56.69;100197.31;1676734;83;25783;-72
2021/04/22 08:03:35;;;;;;;12.53;4.20;;;;;;;7.10;56.65;100198.00;1677606;83;30193;-72
2021/04/22 08:06:01;;;;;;;13.70;3.93;;;;;;;7.19;57.45;100207.50;1679589;83;27945;-72
2021/04/22 08:08:27;;;;;;;13.03;3.67;;;;;;;7.27;56.34;100207.58;1676230;83;25805;-73
2021/04/22 08:10:55;;;;;;;11.73;3.83;;;;;;;7.36;56.25;100212.86;1676999;83;25822;-72
2021/04/22 08:13:23;;;;;;;9.80;3.70;;;;;;;7.42;53.05;100220.91;1676699;83;25328;-74
2021/04/22 08:15:53;;;;;;;7.72;3.17;;;;;;;7.41;53.21;100210.16;1676814;83;25340;-74
2021/04/22 08:18:25;;;;;;;10.72;3.33;;;;;;;7.44;52.74;100218.14;1678095;83;25768;-75
2021/04/22 08:20:53;;;;;;;16.57;3.65;;;;;;;7.45;52.11;100213.30;1673451;83;25908;-70
2021/04/22 08:23:19;;;;;;;16.23;4.33;;;;;;;7.48;53.27;100217.70;1681309;83;26000;-73
2021/04/22 08:25:51;;;;;;;8.78;2.85;;;;;;;7.57;51.65;100226.39;1677109;83;25788;-73
2021/04/22 08:28:19;;;;;;;13.95;3.98;;;;;;;7.62;51.55;100223.36;1677642;83;25707;-73
2021/04/22 08:30:53;;;;;;;12.80;3.67;;;;;;;7.68;51.34;100222.27;1678243;83;25867;-73
2021/04/22 08:33:22;;;;;;;17.17;3.75;;;;;;;7.67;51.01;100227.63;1678021;83;26645;-71
2021/04/22 08:35:49;;;;;;;18.30;3.92;;;;;;;7.69;51.35;100224.38;1633917;84;29209;-73
2021/04/22 08:38:17;;;;;;;12.45;3.62;;;;;;;7.75;51.47;100229.81;1679267;83;25807;-73
2021/04/22 08:40:44;;;;;;;13.20;3.85;;;;;;;7.89;50.31;100226.34;1657073;84;25910;-71
2021/04/22 08:43:12;;;;;;;12.03;3.72;;;;;;;8.04;50.99;100234.42;1655819;84;25377;-72
2021/04/22 08:45:40;;;;;;;12.88;3.17;;;;;;;8.19;50.22;100228.52;1651961;84;25837;-71
2021/04/22 08:48:07;;;;;;;15.55;3.15;;;;;;;8.20;47.61;100231.92;1658163;84;25469;-71
2021/04/22 08:50:35;;;;;;;15.18;4.83;;;;;;;8.18;46.99;100229.95;1677055;83;25802;-71
2021/04/22 08:53:06;;;;;;;12.33;3.60;;;;;;;8.20;47.57;100238.44;1675885;83;25886;-72
2021/04/22 08:55:34;;;;;;;12.70;3.30;;;;;;;8.21;47.63;100250.47;1676365;83;25904;-73
2021/04/22 08:58:04;;;;;;;12.75;3.72;;;;;;;8.23;47.68;100245.94;1677883;83;25855;-73
2021/04/22 09:00:33;;;;;;;;;;;;;;;8.25;46.60;100248.41;1657742;83;25421;-71
2021/04/22 09:02:59;;;;;;;13.32;3.65;;;;;;;8.18;46.19;100236.46;1651158;83;25372;-75
2021/04/22 09:05:25;;;;;;;13.73;3.73;;;;;;;8.16;46.24;100242.33;1677092;83;33496;-73
2021/04/22 09:07:52;;;;;;;12.97;3.47;;;;;;;8.15;46.47;100246.70;1677034;83;28678;-74
2021/04/22 09:10:24;;;;;;;8.48;3.02;;;;;;;8.15;46.49;100244.09;1674392;83;25749;-71
2021/04/22 09:13:08;;;;;;;12.55;3.58;;;;;;;8.19;46.10;100258.45;1676268;83;26427;-72
2021/04/22 09:15:36;;;;;;;14.43;4.20;;;;;;;8.20;47.00;100243.16;1675973;83;25792;-73
2021/04/22 09:18:14;;;;;;;8.50;3.67;;;;;;;8.36;46.88;100249.45;1678372;83;25757;-73
2021/04/22 09:20:44;;;;;;;14.55;4.42;;;;;;;8.40;45.79;100250.33;1678654;83;25912;-74
2021/04/22 09:23:23;;;;;;;15.63;4.10;;;;;;;8.43;46.46;100255.23;1679085;83;25909;-73
2021/04/22 09:26:06;;;;;;;14.35;3.67;;;;;;;8.41;47.19;100248.05;1677547;83;25400;-74
2021/04/22 09:28:46;;;;;;;14.53;4.10;;;;;;;8.53;46.66;100260.81;1680847;83;25881;-73
2021/04/22 09:31:25;;;;;;;10.68;3.83;;;;;;;8.51;46.48;100252.32;1678377;83;25741;-76
2021/04/22 09:34:06;;;;;;;12.33;4.50;;;;;;;8.54;47.82;100252.85;1679287;83;25352;-73
2021/04/22 09:36:48;;;;;;;10.90;4.15;;;;;;;8.63;47.11;100249.30;1676912;83;26711;-77
2021/04/22 09:39:22;;;;;;;12.58;3.30;;;;;;;8.75;48.24;100243.83;1678856;83;25778;-73
2021/04/22 09:41:51;;;;;;;15.80;4.35;;;;;;;8.92;47.68;100248.61;1676704;83;25358;-73
2021/04/22 09:44:19;;;;;;;10.82;3.55;;;;;;;8.87;48.01;100251.70;1677933;83;25747;-73
2021/04/22 09:46:48;;;;;;;16.15;4.40;;;;;;;8.92;47.10;100261.64;1680108;83;25817;-72
2021/04/22 09:49:18;;;;;;;13.00;4.23;;;;;;;8.87;46.59;100251.70;1677012;83;27201;-73
2021/04/22 09:51:47;;;;;;;16.70;4.00;;;;;;;8.87;47.11;100251.22;1680295;83;25785;-74
2021/04/22 09:54:17;;;;;;;10.80;3.47;;;;;;;8.99;47.32;100251.74;1679136;83;25893;-73
2021/04/22 09:56:52;;;;;;;;;;;;;;;9.13;47.28;100245.60;1680278;83;25723;-74
2021/04/22 09:59:22;;;;;;;11.85;3.87;;;;;;;9.21;47.32;100247.73;1677139;83;25802;-74
2021/04/22 10:02:04;;;;;;;12.43;4.20;;;;;;;9.19;46.21;100249.68;1675557;83;26546;-74
2021/04/22 10:04:38;;;;;;;15.98;4.75;;;;;;;9.03;47.10;100250.93;1674226;83;25831;-74
2021/04/22 10:07:21;;;;;;;16.48;4.20;;;;;;;8.98;46.98;100255.33;1680150;83;25825;-74
2021/04/22 10:09:48;;;;;;;12.63;4.05;;;;;;;9.03;47.04;100246.56;1677608;83;26575;-75
2021/04/22 10:12:33;;;;;;;13.03;4.22;;;;;;;9.13;47.24;100250.32;1678340;83;26544;-74
2021/04/22 10:15:17;;;;;;;12.40;3.92;;;;;;;9.16;46.81;100247.39;1678447;83;26502;-74
2021/04/22 10:17:54;;;;;;;15.15;4.00;;;;;;;9.30;47.06;100248.11;1681722;83;26424;-75
2021/04/22 10:20:22;;;;;;;13.00;3.92;;;;;;;9.39;46.75;100247.63;1679765;83;25859;-73
2021/04/22 10:22:50;;;;;;;13.38;3.92;;;;;;;9.31;45.67;100238.48;1674296;83;25327;-76
2021/04/22 10:25:26;;;;;;;12.90;3.70;;;;;;;9.37;46.81;100235.72;1657744;83;25720;-76
2021/04/22 10:27:54;;;;;;;10.03;3.77;;;;;;;9.48;46.20;100238.02;1679255;83;26641;-74
2021/04/22 10:30:24;;;;;;;12.35;3.65;;;;;;;9.43;46.83;100232.47;1649516;84;25869;-74
2021/04/22 10:32:51;;;;;;;9.93;3.85;;;;;;;9.36;45.51;100249.72;1676894;83;26549;-74
2021/04/22 10:35:25;;;;;;;13.25;4.90;;;;;;;9.26;45.91;100228.52;1676983;83;25736;-74
2021/04/22 10:37:53;;;;;;;16.35;4.65;;;;;;;9.34;46.42;100233.76;1675594;83;25872;-75
2021/04/22 10:40:26;;;;;;;7.65;3.25;;;;;;;9.47;46.28;100230.69;1674665;83;26480;-74
2021/04/22 10:42:55;;;;;;;14.30;4.35;;;;;;;9.46;45.56;100232.95;1674452;83;25769;-75
2021/04/22 10:45:22;;;;;;;16.35;3.52;;;;;;;9.39;45.48;100250.73;1674920;84;25864;-75
2021/04/22 10:47:49;;;;;;;12.90;3.70;;;;;;;9.30;45.52;100244.66;1673051;83;25386;-76
2021/04/22 10:50:20;;;;;;;15.32;4.70;;;;;;;9.30;45.78;100253.78;1676835;83;25867;-76
2021/04/22 10:52:49;;;;;;;12.30;5.58;;;;;;;9.35;46.07;100251.52;1671482;83;25811;-76
2021/04/22 10:55:28;;;;;;;14.15;4.50;;;;;;;9.52;45.69;100246.68;1672715;83;26217;-75
2021/04/22 10:57:59;;;;;;;10.85;3.37;;;;;;;9.59;45.30;100244.73;1675092;83;25801;-76
2021/04/22 11:00:29;;;;;;;10.70;4.35;;;;;;;9.54;44.82;100247.31;1672288;83;25757;-76
2021/04/22 11:02:58;;;;;;;10.50;3.30;;;;;;;9.39;45.91;100246.33;1672968;83;25289;-76
2021/04/22 11:05:33;;;;;;;12.75;3.60;;;;;;;9.36;45.56;100245.81;1677296;83;26639;-71
2021/04/22 11:08:06;;;;;;;11.80;4.20;;;;;;;9.44;45.62;100254.95;1678922;83;25802;-72
2021/04/22 11:10:37;;;;;;;10.75;3.75;;;;;;;9.55;45.54;100255.48;1675783;83;25751;-71
2021/04/22 11:13:18;;;;;;;12.85;3.77;;;;;;;9.63;46.11;100250.77;1676970;83;25766;-74
2021/04/22 11:16:00;;;;;;;12.65;3.42;;;;;;;9.66;45.95;100257.47;1679676;83;25805;-74
2021/04/22 11:18:40;;;;;;;10.65;3.80;;;;;;;9.75;46.92;100244.24;1679209;83;25793;-77
2021/04/22 11:21:29;;;;;;;15.63;3.90;;;;;;;9.82;46.21;100258.78;1667558;83;31140;-77
2021/04/22 11:23:59;;;;;;;12.25;3.70;;;;;;;9.88;45.82;100247.69;1677690;83;25832;-71
2021/04/22 11:26:31;;;;;;;;;;;;;;;10.03;45.61;100247.83;1680724;83;26144;-75
2021/04/22 11:29:11;;;;;;;13.70;3.85;;;;;;;10.13;45.10;100250.28;1680863;83;25745;-74
2021/04/22 11:31:54;;;;;;;13.78;4.00;;;;;;;10.22;45.76;100241.45;1674417;82;25693;-75